Time;durP1;ratioP1;P1;durP2;ratioP2;P2;SDS_P1;SDS_P2;PMS_P1;PMS_P2;Temp;Humidity;BMP_temperature;BMP_pressure;BME280_temperature;BME280_humidity;BME280_pressure;Samples;Min_cycle;Max_cycle;Signal;HPM_P1;HPM_P2
2021/11/08 00:01:47;;;;;;;4.68;1.90;;;;;;;25.91;32.45;96940.00;5025162;28;20093;-27
2021/11/08 00:04:12;;;;;;;3.97;1.80;;;;;;;25.92;32.53;96946.06;5026135;28;20661;-30
2021/11/08 00:06:37;;;;;;;4.95;2.00;;;;;;;25.92;32.53;96943.44;5025948;28;20055;-28
2021/11/08 00:09:04;;;;;;;4.47;1.83;;;;;;;25.93;32.45;96945.16;5025965;28;20024;-28
2021/11/08 00:11:30;;;;;;;5.25;1.63;;;;;;;25.93;32.52;96939.91;5029667;28;20143;-28
2021/11/08 00:13:57;;;;;;;4.30;2.00;;;;;;;25.94;32.42;96946.84;5028597;28;20028;-28
2021/11/08 00:19:54;;;;;;;5.13;1.80;;;;;;;25.92;32.37;96944.31;4978702;28;20034;-29
2021/11/08 00:22:19;;;;;;;5.25;1.58;;;;;;;25.93;32.43;96935.50;5024868;28;20545;-26
2021/11/08 00:24:48;;;;;;;4.15;1.52;;;;;;;25.93;32.58;96945.16;5024165;28;20036;-29
2021/11/08 00:27:14;;;;;;;6.03;1.90;;;;;;;25.93;32.56;96939.91;5020785;28;20040;-30
2021/11/08 00:29:40;;;;;;;3.15;1.60;;;;;;;25.93;32.54;96950.41;5016434;28;20581;-29
2021/11/08 00:32:06;;;;;;;3.85;1.77;;;;;;;25.93;32.63;96960.91;5020150;28;20024;-27
2021/11/08 00:34:32;;;;;;;2.92;1.35;;;;;;;25.93;32.39;96948.63;5013806;28;20770;-28
2021/11/08 00:36:58;;;;;;;4.15;1.77;;;;;;;25.93;32.60;96955.66;5017606;28;20033;-29
2021/11/08 00:39:25;;;;;;;3.58;1.80;;;;;;;25.93;32.54;96958.28;5021124;28;21793;-32
2021/11/08 00:41:51;;;;;;;2.80;1.60;;;;;;;25.93;32.44;96951.25;5028645;28;20116;-30
2021/11/08 00:44:16;;;;;;;4.82;1.60;;;;;;;25.93;32.43;96958.28;5029194;28;20657;-28
2021/11/08 00:46:41;;;;;;;5.97;1.80;;;;;;;25.93;32.35;96966.16;5027292;28;20025;-30
2021/11/08 00:49:09;;;;;;;3.58;1.60;;;;;;;25.93;32.25;96956.50;5026635;28;20025;-28
2021/11/08 00:51:37;;;;;;;4.13;1.60;;;;;;;25.93;32.51;96966.16;5029084;28;20025;-32
2021/11/08 00:54:02;;;;;;;3.45;1.50;;;;;;;25.94;32.49;96957.34;5032882;28;20037;-29
2021/11/08 00:56:28;;;;;;;3.38;1.55;;;;;;;25.93;32.33;96950.41;5027197;28;20025;-31
2021/11/08 00:58:53;;;;;;;3.72;1.70;;;;;;;25.93;32.48;96939.91;5025862;28;20082;-29
2021/11/08 01:01:21;;;;;;;2.47;1.48;;;;;;;25.92;32.41;96940.81;5024840;28;20040;-27
2021/11/08 01:03:46;;;;;;;3.40;1.50;;;;;;;25.94;32.37;96946.84;5021562;28;20076;-29
2021/11/08 01:06:13;;;;;;;4.82;1.77;;;;;;;25.92;32.47;96943.44;5030947;28;20033;-31
2021/11/08 01:08:39;;;;;;;3.90;1.45;;;;;;;25.93;32.49;96945.16;5025263;28;20647;-30
2021/11/08 01:11:05;;;;;;;5.72;1.75;;;;;;;25.93;32.38;96955.66;5024988;28;20025;-28
2021/11/08 01:13:30;;;;;;;4.80;1.65;;;;;;;25.92;32.49;96951.31;5042943;28;20060;-32
2021/11/08 01:15:57;;;;;;;4.95;1.88;;;;;;;25.93;32.50;96958.28;5025779;28;20901;-32
2021/11/08 01:18:23;;;;;;;4.40;1.65;;;;;;;25.93;32.51;96958.28;5027813;28;20032;-29
2021/11/08 01:20:49;;;;;;;2.88;1.48;;;;;;;25.93;32.43;96960.91;5027737;28;20151;-28
2021/11/08 01:23:15;;;;;;;4.10;1.75;;;;;;;25.93;32.40;96963.53;5024762;28;20423;-26
2021/11/08 01:25:41;;;;;;;3.20;1.52;;;;;;;25.93;32.51;96967.00;5027512;28;20427;-29
2021/11/08 01:28:08;;;;;;;4.07;1.83;;;;;;;25.93;32.44;96969.63;5019971;28;20029;-29
2021/11/08 01:30:34;;;;;;;4.20;1.50;;;;;;;25.93;32.48;96968.78;5022245;28;20021;-27
2021/11/08 01:35:31;;;;;;;3.38;1.58;;;;;;;25.93;32.55;96974.03;5025782;28;20455;-31
2021/11/08 01:38:04;;;;;;;3.47;1.40;;;;;;;25.94;32.53;96967.84;5029078;28;20599;-28
2021/11/08 01:40:30;;;;;;;3.15;1.20;;;;;;;25.94;32.43;96978.38;5025526;28;20021;-28
2021/11/08 01:42:56;;;;;;;3.90;1.77;;;;;;;25.92;32.39;96970.56;5010930;28;20018;-29
2021/11/08 01:45:21;;;;;;;4.75;1.60;;;;;;;25.93;32.55;96967.00;5025770;28;20040;-28
2021/11/08 01:47:47;;;;;;;3.85;1.63;;;;;;;25.93;32.61;96967.00;5028395;28;20049;-28
2021/11/08 01:50:12;;;;;;;2.72;1.33;;;;;;;25.93;32.59;96966.16;5026155;28;20029;-28
2021/11/08 01:52:37;;;;;;;3.55;1.60;;;;;;;25.92;32.46;96965.31;5019794;28;20665;-28
2021/11/08 01:55:04;;;;;;;2.72;1.35;;;;;;;25.93;32.56;96968.78;5027519;28;20534;-31
2021/11/08 01:57:29;;;;;;;5.03;1.77;;;;;;;25.93;32.59;96964.38;5028103;28;21012;-28
2021/11/08 01:59:55;;;;;;;2.63;1.45;;;;;;;25.93;32.61;96968.78;5024751;28;20028;-30
2021/11/08 02:02:21;;;;;;;4.38;1.55;;;;;;;25.92;32.37;96964.44;5041404;28;20136;-28
2021/11/08 02:04:47;;;;;;;3.30;1.38;;;;;;;25.92;32.54;96965.31;5023846;28;20038;-27
2021/11/08 02:07:12;;;;;;;2.47;1.17;;;;;;;25.92;32.61;96964.44;5027288;28;20116;-29
2021/11/08 02:09:37;;;;;;;2.85;1.13;;;;;;;25.92;32.58;96969.69;5026515;28;20028;-35
2021/11/08 02:12:04;;;;;;;3.05;1.45;;;;;;;25.92;32.60;96974.94;5026122;28;20483;-29
2021/11/08 02:14:29;;;;;;;3.15;1.40;;;;;;;25.92;32.57;96972.31;5022884;28;20017;-28
2021/11/08 02:16:54;;;;;;;6.18;1.63;;;;;;;25.92;32.62;96974.94;5026382;28;20080;-29
2021/11/08 02:19:20;;;;;;;2.63;1.58;;;;;;;25.92;32.50;96981.06;5027427;28;20566;-27
2021/11/08 02:21:46;;;;;;;3.05;1.23;;;;;;;25.92;32.55;96977.56;5024086;28;20035;-28
2021/11/08 02:24:16;;;;;;;1.95;1.23;;;;;;;25.92;32.60;96975.81;5024030;28;20021;-29
2021/11/08 02:26:43;;;;;;;4.80;1.33;;;;;;;25.91;32.54;96981.13;5025630;28;20037;-31
2021/11/08 02:29:09;;;;;;;2.42;1.27;;;;;;;25.91;32.61;96973.25;5014361;28;20136;-29
2021/11/08 02:31:36;;;;;;;4.40;1.50;;;;;;;25.91;32.49;96973.25;5014819;28;20040;-28
2021/11/08 02:34:02;;;;;;;4.80;1.30;;;;;;;25.90;32.68;96975.03;5023363;28;20064;-29
2021/11/08 02:36:29;;;;;;;3.80;1.20;;;;;;;25.91;32.60;96973.25;5021603;28;20107;-27
2021/11/08 02:38:56;;;;;;;3.45;1.38;;;;;;;25.91;32.63;96968.00;5024679;28;20898;-34
2021/11/08 02:41:22;;;;;;;4.88;1.40;;;;;;;25.90;32.55;96966.31;5026369;28;20030;-30
2021/11/08 02:43:47;;;;;;;2.40;1.10;;;;;;;25.90;32.41;96974.19;5025791;28;20035;-28
2021/11/08 02:46:17;;;;;;;2.53;1.15;;;;;;;25.90;32.53;96966.31;5029798;28;20033;-31
2021/11/08 02:48:44;;;;;;;3.88;1.33;;;;;;;25.90;32.48;96966.31;5024760;28;20236;-31
2021/11/08 02:51:24;;;;;;;2.83;1.42;;;;;;;25.90;32.49;96972.41;5025379;28;20308;-30
2021/11/08 02:53:53;;;;;;;2.17;1.42;;;;;;;25.90;32.43;96977.66;5032453;28;20502;-29
2021/11/08 02:56:19;;;;;;;2.35;1.23;;;;;;;25.90;32.49;96982.91;5023096;28;20029;-29
2021/11/08 02:58:45;;;;;;;2.08;1.30;;;;;;;25.89;32.44;96975.13;5029784;28;20033;-31
2021/11/08 03:01:14;;;;;;;3.35;1.20;;;;;;;25.89;32.64;96981.22;5030944;28;20033;-29
2021/11/08 03:03:42;;;;;;;2.38;1.17;;;;;;;25.89;32.53;96981.22;5026284;28;20056;-28
2021/11/08 03:09:29;;;;;;;2.42;1.27;;;;;;;25.88;32.48;96982.13;4972194;28;20045;-30
2021/11/08 03:11:55;;;;;;;2.25;1.30;;;;;;;25.88;32.53;96987.41;5025859;28;20041;-28
2021/11/08 03:14:24;;;;;;;2.17;1.25;;;;;;;25.88;32.50;96986.53;5029206;28;20555;-27
2021/11/08 03:17:00;;;;;;;2.42;1.08;;;;;;;25.88;32.61;96984.75;5031813;28;20058;-30
2021/11/08 03:19:36;;;;;;;2.45;1.33;;;;;;;25.88;32.44;96989.16;5029847;28;20113;-31
2021/11/08 03:22:14;;;;;;;2.63;1.27;;;;;;;25.87;32.50;96982.22;5029077;28;20032;-29
2021/11/08 03:29:53;;;;;;;3.45;1.50;;;;;;;25.85;32.66;97002.47;5022450;28;20064;-28
2021/11/08 03:32:19;;;;;;;3.22;1.20;;;;;;;25.86;32.45;96999.75;5020622;28;20037;-31
2021/11/08 03:35:00;;;;;;;2.00;1.25;;;;;;;25.86;32.49;97001.53;5024107;28;20029;-31
2021/11/08 03:37:26;;;;;;;2.90;1.40;;;;;;;25.85;32.47;97005.09;5019707;28;20166;-27
2021/11/08 03:39:51;;;;;;;2.17;1.10;;;;;;;25.86;32.53;97004.16;4998551;28;20029;-30
2021/11/08 03:42:18;;;;;;;2.60;1.00;;;;;;;25.85;32.61;97005.09;5040673;28;20033;-30
2021/11/08 03:44:43;;;;;;;2.10;1.10;;;;;;;25.85;32.28;97002.47;5017488;28;20028;-27
2021/11/08 03:47:09;;;;;;;2.67;1.17;;;;;;;25.85;32.51;97000.66;5018799;28;20033;-30
2021/11/08 03:49:34;;;;;;;3.08;1.20;;;;;;;25.85;32.54;97005.09;5025792;28;20041;-28
2021/11/08 03:52:00;;;;;;;2.47;1.30;;;;;;;25.83;32.42;97003.34;5028423;28;20025;-31
2021/11/08 03:54:27;;;;;;;3.15;1.27;;;;;;;25.84;32.59;97004.22;5030648;28;20025;-30
2021/11/08 03:56:52;;;;;;;1.38;1.00;;;;;;;25.84;32.46;97014.72;5039569;28;21017;-29
2021/11/08 03:59:18;;;;;;;2.28;1.30;;;;;;;25.82;32.54;97017.41;5025799;28;20032;-29
2021/11/08 04:01:44;;;;;;;3.17;1.13;;;;;;;25.83;32.36;97018.28;5036723;28;20074;-26
2021/11/08 04:04:09;;;;;;;2.03;1.17;;;;;;;25.82;32.33;97022.66;5032079;28;20882;-30
2021/11/08 04:06:35;;;;;;;2.30;1.33;;;;;;;25.83;32.11;97021.75;5020816;28;20033;-29
2021/11/08 04:09:00;;;;;;;1.48;1.00;;;;;;;25.82;32.52;97017.41;5025169;28;20489;-28
2021/11/08 04:11:29;;;;;;;3.28;1.20;;;;;;;25.82;32.23;97017.41;5027810;28;20025;-30
2021/11/08 04:13:57;;;;;;;1.42;1.00;;;;;;;25.83;32.26;97015.66;5026050;28;20033;-30
2021/11/08 04:16:24;;;;;;;1.77;1.08;;;;;;;25.82;32.30;97017.41;5029406;28;20028;-27
2021/11/08 04:18:51;;;;;;;3.88;1.23;;;;;;;25.81;32.32;97013.09;5026794;28;20652;-31
2021/11/08 04:21:18;;;;;;;1.63;0.88;;;;;;;25.80;32.46;97019.28;5024844;28;20872;-31
2021/11/08 04:23:43;;;;;;;1.83;1.10;;;;;;;25.81;32.36;97026.22;5028713;28;20520;-27
2021/11/08 04:26:11;;;;;;;1.75;1.00;;;;;;;25.82;32.42;97030.53;5023197;28;20032;-27
2021/11/08 04:28:37;;;;;;;1.80;1.00;;;;;;;25.82;32.41;97032.34;5025923;28;20025;-30
2021/11/08 04:31:02;;;;;;;1.88;0.95;;;;;;;25.80;32.26;97029.78;5025436;28;20029;-29
2021/11/08 04:36:32;;;;;;;1.63;0.95;;;;;;;25.82;32.38;97032.34;5025397;28;20123;-29
2021/11/08 04:39:14;;;;;;;0.95;0.70;;;;;;;25.81;32.37;97026.22;5028998;28;20128;-29
2021/11/08 04:57:57;;;;;;;1.63;0.93;;;;;;;25.74;32.11;97032.69;5022825;28;20718;-30
2021/11/08 05:30:34;;;;;;;2.17;1.33;;;;;;;25.71;32.28;97051.25;5015973;28;20006;-30
2021/11/08 05:33:01;;;;;;;1.70;1.00;;;;;;;25.72;32.36;97055.56;5026917;28;20029;-31
2021/11/08 05:35:27;;;;;;;1.95;0.88;;;;;;;25.72;32.19;97052.94;5024615;28;20052;-30
2021/11/08 05:37:53;;;;;;;1.13;0.95;;;;;;;25.72;32.30;97055.56;5020785;28;20130;-27
2021/11/08 05:40:25;;;;;;;2.65;1.08;;;;;;;25.72;32.27;97057.31;5041906;28;20140;-29
2021/11/08 05:42:50;;;;;;;;;;;;;;;25.71;32.17;97061.75;5026618;28;20705;-31
2021/11/08 05:45:16;;;;;;;2.47;0.98;;;;;;;25.71;32.17;97059.13;5029359;28;19917;-29
2021/11/08 05:47:42;;;;;;;3.03;0.90;;;;;;;25.70;32.18;97062.63;5023051;28;20087;-29
2021/11/08 05:50:09;;;;;;;1.40;0.75;;;;;;;25.69;32.24;97067.06;5025714;28;20068;-27
2021/11/08 05:52:35;;;;;;;2.28;1.10;;;;;;;25.70;32.41;97060.88;5024306;28;20025;-28
2021/11/08 05:55:00;;;;;;;1.90;0.90;;;;;;;25.69;32.25;97066.19;5041376;28;21037;-31
2021/11/08 05:57:53;;;;;;;1.63;1.20;;;;;;;25.69;32.29;97071.44;5020783;28;20076;-28
2021/11/08 06:49:30;;;;;;;2.05;1.08;;;;;;;25.67;32.38;97107.44;5026200;28;20033;-28
2021/11/08 06:51:56;;;;;;;2.58;1.20;;;;;;;25.67;32.24;97117.94;5026432;28;20057;-26
2021/11/08 06:54:24;;;;;;;2.65;0.90;;;;;;;25.67;32.18;97110.88;5029105;28;20258;-31
2021/11/08 06:56:55;;;;;;;1.77;1.00;;;;;;;25.67;32.33;97107.44;5027309;28;20037;-28
2021/11/08 06:59:23;;;;;;;1.85;0.85;;;;;;;25.67;32.21;97110.06;5024062;28;20065;-26
2021/11/08 07:01:49;;;;;;;7.85;1.80;;;;;;;25.68;31.89;97109.13;5027877;28;20039;-29
2021/11/08 07:04:16;;;;;;;10.93;2.08;;;;;;;25.65;31.52;97110.13;5028305;28;20021;-31
2021/11/08 07:06:41;;;;;;;2.55;1.15;;;;;;;25.61;31.42;97098.06;5029599;28;21068;-26
2021/11/08 07:09:07;;;;;;;5.55;1.88;;;;;;;25.63;31.54;97113.75;5029736;28;20033;-28
2021/11/08 07:11:32;;;;;;;18.05;3.97;;;;;;;25.62;31.78;97120.75;5025669;28;20039;-27
2021/11/08 07:13:58;;;;;;;20.20;5.15;;;;;;;25.61;31.93;97118.19;5025564;28;20037;-26
2021/11/08 07:16:23;;;;;;;13.80;4.60;;;;;;;25.61;31.93;97118.19;5024418;28;20206;-28
2021/11/08 07:18:48;;;;;;;10.65;4.40;;;;;;;25.60;31.89;97122.63;5025752;28;20040;-29
2021/11/08 07:21:14;;;;;;;14.82;3.92;;;;;;;25.62;31.94;97130.44;5042252;28;20037;-27
2021/11/08 07:23:39;;;;;;;9.20;3.75;;;;;;;25.62;32.12;97135.66;5022188;28;20042;-29
2021/11/08 07:26:07;;;;;;;12.98;4.10;;;;;;;25.63;31.97;97137.38;5018137;28;20064;-27
2021/11/08 07:28:32;;;;;;;14.75;4.00;;;;;;;25.64;31.98;97139.06;5004849;28;20029;-27
2021/11/08 07:30:58;;;;;;;8.93;3.72;;;;;;;25.65;31.89;97135.50;5024421;28;20441;-26
2021/11/08 07:33:23;;;;;;;13.70;4.03;;;;;;;25.67;31.92;97136.31;5033017;28;20554;-31
2021/11/08 07:35:49;;;;;;;11.73;3.67;;;;;;;25.68;32.00;97146.72;5026144;28;20030;-27
2021/11/08 07:38:14;;;;;;;10.27;3.42;;;;;;;25.69;32.08;97142.31;5021799;28;20029;-26
2021/11/08 07:40:40;;;;;;;9.88;3.70;;;;;;;25.70;31.94;97144.88;5034398;28;20064;-28
2021/11/08 07:43:05;;;;;;;9.70;3.33;;;;;;;25.72;31.88;97147.44;5040456;28;20025;-26
2021/11/08 07:45:31;;;;;;;9.40;3.50;;;;;;;25.73;31.95;97141.25;5021137;28;20036;-28
2021/11/08 07:47:56;;;;;;;16.73;3.70;;;;;;;25.74;32.08;97145.56;5025515;28;20057;-29
2021/11/08 07:50:21;;;;;;;8.77;3.28;;;;;;;25.75;31.88;97142.03;5025536;28;20044;-30
2021/11/08 07:52:47;;;;;;;11.38;3.00;;;;;;;25.77;31.94;97144.56;5026725;28;20031;-28
2021/11/08 07:55:12;;;;;;;8.65;3.13;;;;;;;25.78;31.93;97138.41;5028256;28;20857;-28
2021/11/08 07:57:39;;;;;;;8.77;3.30;;;;;;;25.79;32.11;97145.38;5024571;28;20549;-26
2021/11/08 08:00:06;;;;;;;8.32;3.13;;;;;;;25.78;31.93;97141.88;5022214;28;20037;-27
2021/11/08 08:02:31;;;;;;;7.97;2.70;;;;;;;25.80;31.96;97153.16;5003840;28;20252;-27
2021/11/08 08:04:57;;;;;;;10.80;3.28;;;;;;;25.81;31.79;97147.00;5039776;28;20029;-30
2021/11/08 08:07:22;;;;;;;6.80;3.05;;;;;;;25.82;31.34;97142.59;5025826;28;20463;-29
2021/11/08 08:09:48;;;;;;;10.82;2.97;;;;;;;25.81;31.46;97152.25;5026305;28;20033;-29
2021/11/08 08:12:13;;;;;;;7.25;2.90;;;;;;;25.82;31.68;97143.44;5029889;28;20040;-30
2021/11/08 08:14:39;;;;;;;13.93;2.80;;;;;;;25.83;32.01;97139.88;5028108;28;20099;-29
2021/11/08 08:17:04;;;;;;;12.90;3.65;;;;;;;25.86;32.16;97138.03;5026458;28;20030;-28
2021/11/08 08:19:31;;;;;;;27.40;5.55;;;;;;;25.86;32.26;97140.66;5024528;28;20044;-27
2021/11/08 08:21:56;;;;;;;23.33;5.43;;;;;;;25.87;32.46;97129.22;5021132;28;20029;-29
2021/11/08 08:24:22;;;;;;;38.58;8.48;;;;;;;25.89;32.47;97133.50;5025348;28;20021;-29
2021/11/08 08:26:47;;;;;;;38.05;8.35;;;;;;;25.90;32.59;97123.84;5023811;28;20028;-29
2021/11/08 08:29:13;;;;;;;32.95;7.63;;;;;;;25.92;32.83;97128.09;5023301;28;20462;-31
2021/11/08 08:31:41;;;;;;;33.67;6.65;;;;;;;25.95;33.01;97124.47;5023683;28;20534;-26
2021/11/08 08:34:06;;;;;;;25.50;6.00;;;;;;;25.95;33.15;97121.84;5024451;28;20064;-29
2021/11/08 08:36:32;;;;;;;22.85;6.28;;;;;;;25.98;33.14;97136.59;5037197;28;20021;-28
2021/11/08 08:38:58;;;;;;;30.67;5.53;;;;;;;25.98;33.24;97140.09;5025376;28;20021;-31
2021/11/08 08:41:23;;;;;;;20.73;5.70;;;;;;;26.01;33.18;97142.53;5023311;28;20608;-29
2021/11/08 08:43:49;;;;;;;17.90;5.43;;;;;;;26.01;33.27;97142.53;5038085;28;20033;-27
2021/11/08 08:46:15;;;;;;;24.13;5.28;;;;;;;26.03;33.23;97135.47;5023104;28;20069;-30
2021/11/08 08:48:41;;;;;;;21.40;4.97;;;;;;;26.05;33.27;97144.09;5018738;28;20060;-28
2021/11/08 08:51:07;;;;;;;17.48;5.15;;;;;;;26.06;33.36;97135.31;5021978;28;20086;-27
2021/11/08 08:53:36;;;;;;;17.00;5.00;;;;;;;26.08;33.24;97143.09;5020659;28;22382;-28
2021/11/08 08:56:01;;;;;;;17.17;4.90;;;;;;;26.09;33.27;97140.41;5035611;28;20039;-27
2021/11/08 08:58:27;;;;;;;18.42;4.78;;;;;;;26.12;33.33;97138.56;5023524;28;20033;-28
2021/11/08 09:00:52;;;;;;;14.50;4.82;;;;;;;26.13;33.36;97142.88;5022636;28;20621;-29
2021/11/08 09:03:18;;;;;;;21.67;4.90;;;;;;;26.15;33.35;97131.38;5020624;28;20033;-27
2021/11/08 09:05:45;;;;;;;17.67;4.57;;;;;;;26.16;33.40;97125.19;5038230;28;20032;-29
2021/11/08 09:08:10;;;;;;;13.90;4.45;;;;;;;26.19;33.22;97129.44;5022374;28;20040;-31
2021/11/08 09:10:36;;;;;;;15.27;4.63;;;;;;;26.21;33.36;97131.06;5019017;28;20037;-30
2021/11/08 09:13:01;;;;;;;16.88;3.80;;;;;;;26.23;33.27;97120.47;5020965;28;20037;-29
2021/11/08 09:15:27;;;;;;;11.98;3.75;;;;;;;26.25;33.23;97123.91;5024045;28;20064;-29
2021/11/08 09:17:53;;;;;;;12.25;3.90;;;;;;;26.27;33.26;97123.84;5029392;28;20060;-28
2021/11/08 09:20:19;;;;;;;14.90;3.55;;;;;;;26.28;33.18;97121.13;5028610;28;20025;-28
2021/11/08 09:22:45;;;;;;;13.25;4.15;;;;;;;26.29;33.21;97130.72;5023103;28;20028;-30
2021/11/08 09:25:12;;;;;;;12.05;3.50;;;;;;;26.30;33.31;97132.44;5028462;28;20028;-31
2021/11/08 09:27:37;;;;;;;12.30;3.67;;;;;;;26.32;33.22;97130.56;5028928;28;20082;-28
2021/11/08 09:30:04;;;;;;;17.50;3.67;;;;;;;26.33;32.16;97132.28;5026848;28;20024;-30
2021/11/08 09:32:30;;;;;;;17.58;4.05;;;;;;;26.27;28.41;97132.56;5025567;28;20028;-29
2021/11/08 09:34:55;;;;;;;19.17;4.15;;;;;;;26.13;26.88;97125.34;5026454;28;20134;-29
2021/11/08 09:37:23;;;;;;;12.88;3.90;;;;;;;25.94;26.27;97128.03;5022318;28;20526;-27
2021/11/08 09:39:49;;;;;;;14.68;4.03;;;;;;;25.74;26.04;97136.88;5021101;28;20033;-29
2021/11/08 09:42:15;;;;;;;15.57;4.38;;;;;;;25.51;25.82;97138.75;5021846;28;20033;-29
2021/11/08 09:44:40;;;;;;;24.23;5.03;;;;;;;25.30;25.49;97155.41;5022251;28;20029;-29
2021/11/08 09:47:06;;;;;;;20.70;4.80;;;;;;;25.09;25.10;97153.75;5024055;28;20033;-30
2021/11/08 09:49:32;;;;;;;30.38;4.50;;;;;;;24.88;25.44;97152.03;5023539;28;20032;-31
2021/11/08 09:51:58;;;;;;;19.67;4.63;;;;;;;24.71;25.89;97147.44;5020936;28;20112;-29
2021/11/08 09:54:29;;;;;;;21.00;4.38;;;;;;;24.60;26.07;97152.31;5024487;28;20029;-29
2021/11/08 09:56:58;;;;;;;17.70;4.15;;;;;;;24.53;26.71;97144.69;5028445;28;20596;-32
2021/11/08 09:59:24;;;;;;;15.00;3.53;;;;;;;24.53;27.33;97152.56;5027503;28;20029;-29
2021/11/08 10:01:51;;;;;;;14.23;4.07;;;;;;;24.52;27.65;97147.41;5023623;28;20090;-28
2021/11/08 10:04:17;;;;;;;13.18;3.50;;;;;;;24.61;28.17;97154.00;5027681;28;20059;-29
2021/11/08 10:06:42;;;;;;;12.15;3.55;;;;;;;24.67;28.57;97158.97;5028739;28;20055;-30
2021/11/08 10:09:09;;;;;;;11.00;3.63;;;;;;;24.73;28.75;97150.88;5027579;28;20037;-27
2021/11/08 10:11:35;;;;;;;11.68;3.17;;;;;;;24.80;29.03;97154.91;5043169;28;20044;-32
2021/11/08 10:14:01;;;;;;;10.10;3.33;;;;;;;24.86;29.71;97158.25;5026818;28;20090;-32
2021/11/08 10:16:28;;;;;;;10.52;3.15;;;;;;;24.93;29.95;97162.28;5031473;28;20029;-27
2021/11/08 10:18:56;;;;;;;10.02;3.20;;;;;;;25.00;30.19;97161.09;5017286;28;20123;-26
2021/11/08 10:21:28;;;;;;;11.82;2.83;;;;;;;25.08;30.16;97157.28;5024320;28;20060;-32
2021/11/08 10:23:55;;;;;;;10.02;3.28;;;;;;;25.21;30.22;97158.47;5030812;28;20321;-30
2021/11/08 10:26:26;;;;;;;20.30;3.63;;;;;;;25.34;29.33;97156.13;5021368;28;20087;-29
2021/11/08 10:28:59;;;;;;;22.52;3.40;;;;;;;25.50;29.07;97153.66;5030204;28;20060;-31
2021/11/08 10:31:28;;;;;;;13.13;3.10;;;;;;;25.66;29.06;97152.97;5028273;28;20037;-30
2021/11/08 10:33:54;;;;;;;11.23;3.42;;;;;;;25.80;29.31;97150.53;5030382;28;21110;-29
2021/11/08 10:36:20;;;;;;;8.85;2.70;;;;;;;25.95;29.22;97148.09;5022993;28;20041;-31
2021/11/08 10:38:46;;;;;;;8.50;2.72;;;;;;;26.08;29.13;97143.94;5027145;28;20087;-28
2021/11/08 10:41:13;;;;;;;8.15;2.50;;;;;;;26.19;29.06;97142.56;5022713;28;20021;-33
2021/11/08 10:43:40;;;;;;;7.97;2.63;;;;;;;26.31;28.83;97139.38;5027655;28;20025;-31
2021/11/08 10:46:17;;;;;;;8.95;2.83;;;;;;;26.45;28.79;97145.72;5032793;28;20086;-30
2021/11/08 10:48:45;;;;;;;16.23;2.72;;;;;;;26.57;28.96;97145.09;5028311;28;20671;-29
2021/11/08 10:51:12;;;;;;;6.82;2.60;;;;;;;26.69;28.85;97153.31;5043150;28;20033;-30
2021/11/08 10:53:58;;;;;;;10.27;2.42;;;;;;;26.82;28.83;97159.63;5042591;28;20179;-32
2021/11/08 10:56:27;;;;;;;7.07;2.50;;;;;;;26.94;28.80;97163.44;5030857;28;20020;-29
2021/11/08 10:58:55;;;;;;;10.93;2.40;;;;;;;27.06;28.81;97164.56;5025619;28;20029;-32
2021/11/08 11:01:29;;;;;;;9.00;2.33;;;;;;;27.17;28.81;97163.13;5007275;28;20124;-29
2021/11/08 11:03:56;;;;;;;11.05;2.88;;;;;;;27.25;28.43;97156.53;4975813;28;20033;-30
2021/11/08 11:06:50;;;;;;;7.80;2.20;;;;;;;27.35;28.59;97162.16;5028254;28;20670;-30
2021/11/08 11:09:18;;;;;;;12.27;3.00;;;;;;;27.43;28.54;97153.00;5030380;28;20063;-30
2021/11/08 11:11:44;;;;;;;8.45;2.58;;;;;;;27.48;28.43;97149.19;5032118;28;20032;-29
2021/11/08 11:14:10;;;;;;;12.93;2.78;;;;;;;27.55;28.55;97159.38;5032130;28;20105;-29
2021/11/08 11:16:38;;;;;;;8.25;2.67;;;;;;;27.60;28.15;97160.81;5029708;28;20531;-29
2021/11/08 11:19:08;;;;;;;9.77;2.70;;;;;;;27.65;28.08;97150.09;5029182;28;20029;-32
2021/11/08 11:21:35;;;;;;;10.23;2.70;;;;;;;27.71;28.00;97156.78;4986019;28;20806;-29
2021/11/08 11:24:05;;;;;;;14.30;2.53;;;;;;;27.77;28.08;97151.19;4981000;28;20041;-33
2021/11/08 11:26:48;;;;;;;8.63;2.80;;;;;;;27.80;27.88;97161.53;5016722;28;20036;-32
2021/11/08 11:29:13;;;;;;;9.25;2.13;;;;;;;27.87;27.93;97152.34;5031106;28;20029;-31
2021/11/08 11:31:39;;;;;;;6.35;2.20;;;;;;;27.94;27.35;97150.22;5027892;28;20187;-29
2021/11/08 11:34:13;;;;;;;7.00;2.38;;;;;;;27.99;26.95;97158.72;5025240;28;20033;-29
2021/11/08 11:36:39;;;;;;;6.88;2.30;;;;;;;28.05;27.22;97149.63;5024546;28;20034;-30
2021/11/08 11:39:07;;;;;;;9.52;2.47;;;;;;;28.10;27.11;97150.19;5023880;28;20091;-31
2021/11/08 11:41:35;;;;;;;7.30;2.40;;;;;;;28.14;27.16;97142.97;5023698;28;20025;-30
2021/11/08 11:44:04;;;;;;;7.65;2.60;;;;;;;28.17;27.40;97143.66;5022742;28;20533;-30
2021/11/08 11:46:39;;;;;;;9.75;2.65;;;;;;;28.21;26.96;97140.81;4986174;28;20499;-29
2021/11/08 11:49:05;;;;;;;8.30;2.42;;;;;;;28.24;26.93;97135.38;4982300;28;20155;-30
2021/11/08 11:51:36;;;;;;;5.30;2.05;;;;;;;28.24;26.89;97138.88;4979083;28;20611;-30
2021/11/08 11:54:02;;;;;;;6.90;2.20;;;;;;;28.27;26.97;97136.06;5006452;28;20228;-30
2021/11/08 11:56:28;;;;;;;5.88;2.22;;;;;;;28.29;26.85;97136.00;5028667;28;20660;-30
2021/11/08 11:58:54;;;;;;;7.40;2.47;;;;;;;28.30;26.96;97129.81;5023457;28;20085;-29
2021/11/08 12:01:22;;;;;;;7.80;2.50;;;;;;;28.30;26.91;97132.44;5031389;28;20025;-29
2021/11/08 12:03:47;;;;;;;5.60;2.00;;;;;;;28.31;26.79;97123.59;5022600;28;20032;-30
2021/11/08 12:06:15;;;;;;;7.40;2.08;;;;;;;28.32;26.67;97125.28;5043261;28;20048;-28
2021/11/08 12:08:41;;;;;;;6.97;2.33;;;;;;;28.34;26.69;97126.03;5015411;28;20835;-30
2021/11/08 12:11:07;;;;;;;11.23;2.30;;;;;;;28.35;26.95;97125.09;5042230;28;20033;-29
2021/11/08 12:13:34;;;;;;;8.38;2.20;;;;;;;28.35;26.89;97125.09;5028644;28;20604;-32
2021/11/08 12:16:28;;;;;;;8.10;2.33;;;;;;;28.36;26.85;97118.03;5026579;28;20280;-29
2021/11/08 12:18:58;;;;;;;20.15;2.15;;;;;;;28.36;26.87;97113.63;5020173;28;20037;-29
2021/11/08 12:21:25;;;;;;;7.80;2.38;;;;;;;28.37;27.18;97115.31;5026880;28;20026;-29
2021/11/08 12:23:51;;;;;;;5.57;2.22;;;;;;;28.40;27.26;97115.13;5037717;28;20545;-28
2021/11/08 12:26:22;;;;;;;7.32;2.25;;;;;;;28.42;27.17;97118.53;5025621;28;20876;-29
2021/11/08 12:28:48;;;;;;;10.07;2.42;;;;;;;28.46;27.32;97121.84;5024309;28;20039;-32
2021/11/08 12:31:19;;;;;;;5.10;2.10;;;;;;;28.49;27.18;97118.19;5026428;28;20480;-31
2021/11/08 12:33:45;;;;;;;;;;;;;;;28.50;27.32;97118.09;5021949;28;20056;-29
2021/11/08 12:36:10;;;;;;;8.65;2.40;;;;;;;28.52;26.66;97115.34;5000553;28;20079;-35
2021/11/08 12:38:37;;;;;;;9.45;2.60;;;;;;;28.51;26.57;97116.28;5018152;28;20038;-36
2021/11/08 12:41:14;;;;;;;5.47;1.88;;;;;;;28.48;26.57;97122.59;5034555;28;20036;-30
2021/11/08 12:43:43;;;;;;;9.98;2.55;;;;;;;28.49;26.74;97120.81;5020645;28;20052;-28
2021/11/08 12:46:13;;;;;;;9.68;2.72;;;;;;;28.48;26.79;97119.09;5017787;28;20041;-32
2021/11/08 12:48:39;;;;;;;6.60;2.28;;;;;;;28.45;26.49;97114.84;5020519;28;21868;-32
2021/11/08 12:51:05;;;;;;;8.13;2.38;;;;;;;28.45;26.41;97114.03;5041104;28;20030;-30
2021/11/08 12:53:39;;;;;;;5.07;2.13;;;;;;;28.43;26.26;97107.06;5025165;28;20375;-30
2021/11/08 12:56:22;;;;;;;6.05;2.20;;;;;;;28.40;26.58;97109.88;5024091;28;20098;-31
2021/11/08 12:58:51;;;;;;;8.85;3.78;;;;;;;28.42;26.65;97109.78;5036177;28;20063;-32
2021/11/08 13:01:22;;;;;;;15.52;6.32;;;;;;;28.41;27.17;97103.66;5023622;28;20028;-32
2021/11/08 13:03:51;;;;;;;18.80;8.23;;;;;;;28.41;27.15;97103.66;5020672;28;20122;-35
2021/11/08 13:06:42;;;;;;;48.33;15.95;;;;;;;28.40;27.38;97101.97;5038120;28;20317;-28
2021/11/08 13:09:11;;;;;;;67.63;24.33;;;;;;;28.40;27.55;97104.59;5025497;28;20112;-31
2021/11/08 13:11:41;;;;;;;59.60;24.65;;;;;;;28.41;27.78;97103.66;5023811;28;20025;-30
2021/11/08 13:14:07;;;;;;;61.67;23.15;;;;;;;28.43;27.76;97101.78;5039899;28;20029;-31
2021/11/08 13:16:41;;;;;;;60.38;23.55;;;;;;;28.47;27.67;97106.84;5015547;28;20394;-31
2021/11/08 13:19:09;;;;;;;55.38;21.45;;;;;;;28.51;27.61;97108.38;5022600;28;20325;-31
2021/11/08 13:21:35;;;;;;;53.70;18.63;;;;;;;28.56;28.11;97116.84;5021524;28;20803;-31
2021/11/08 13:24:00;;;;;;;35.92;15.48;;;;;;;28.59;28.42;97116.69;5027214;28;20233;-30
2021/11/08 13:26:26;;;;;;;41.45;16.23;;;;;;;28.63;27.48;97115.56;5024768;28;20029;-31